Time;durP1;ratioP1;P1;durP2;ratioP2;P2;SDS_P1;SDS_P2;PMS_P1;PMS_P2;Temp;Humidity;BMP_temperature;BMP_pressure;BME280_temperature;BME280_humidity;BME280_pressure;Samples;Min_cycle;Max_cycle;Signal;HPM_P1;HPM_P2
2021/12/16 00:08:41;;;;;;;18.02;5.22;;;;;;;;;;4996957;28;20053;-81
2021/12/16 00:30:36;;;;;;;14.48;4.22;;;;;;;;;;4995013;28;20256;-80
2021/12/16 00:35:48;;;;;;;18.60;4.68;;;;;;;;;;4985535;28;20039;-80
2021/12/16 00:38:15;;;;;;;18.33;5.40;;;;;;;;;;4992618;28;20045;-81
2021/12/16 00:40:43;;;;;;;24.65;4.68;;;;;;;;;;4995867;28;20311;-81
2021/12/16 00:43:16;;;;;;;25.70;5.55;;;;;;;;;;4974786;28;20034;-80
2021/12/16 00:46:08;;;;;;;19.40;4.20;;;;;;;;;;4992439;28;20094;-80
2021/12/16 00:54:11;;;;;;;;;;;;;;;;;;4988013;28;20118;-81
2021/12/16 00:56:39;;;;;;;22.50;4.32;;;7.30;99.90;;;;;;4995017;28;19932;-80
2021/12/16 00:59:08;;;;;;;15.88;4.13;;;;;;;;;;4993613;28;20081;-81
2021/12/16 01:09:58;;;;;;;19.02;4.97;;;;;;;;;;5000805;28;20093;-81
2021/12/16 01:42:32;;;;;;;22.88;4.40;;;8.70;99.90;;;;;;4995987;28;20038;-81
2021/12/16 01:45:58;;;;;;;48.93;7.60;;;;;;;;;;4996280;28;20255;-81
2021/12/16 01:50:26;;;;;;;23.48;4.82;;;8.80;99.90;;;;;;4994106;28;20042;-81
2021/12/16 01:55:33;;;;;;;24.55;4.30;;;;;;;;;;4998936;28;20122;-81
2021/12/16 01:58:11;;;;;;;16.13;4.28;;;;;;;;;;4982373;28;20041;-83
2021/12/16 02:00:53;;;;;;;18.92;4.18;;;;;;;;;;4999396;28;20173;-81
2021/12/16 02:03:25;;;;;;;15.82;4.07;;;;;;;;;;5003009;28;20065;-80
2021/12/16 02:06:07;;;;;;;18.33;4.40;;;;;;;;;;4996494;28;20046;-80
2021/12/16 02:08:38;;;;;;;15.05;4.07;;;;;;;;;;5012177;28;20037;-80
2021/12/16 02:11:22;;;;;;;21.27;4.57;;;;;;;;;;4980407;28;20029;-80
2021/12/16 02:37:50;;;;;;;31.50;5.25;;;;;;;;;;4993829;28;20032;-81
2021/12/16 02:40:17;;;;;;;19.52;4.75;;;;;;;;;;4995520;28;20193;-80
2021/12/16 02:43:00;;;;;;;26.13;5.15;;;7.90;99.90;;;;;;4991191;28;20042;-81
2021/12/16 02:48:32;;;;;;;26.45;6.07;;;7.70;99.90;;;;;;4992036;28;20044;-81
2021/12/16 02:51:04;;;;;;;27.17;5.80;;;;;;;;;;4977337;28;20027;-80
2021/12/16 02:53:31;;;;;;;24.23;5.05;;;;;;;;;;5010138;28;20245;-80
2021/12/16 02:55:57;;;;;;;23.33;4.78;;;;;;;;;;4980028;28;20683;-79
2021/12/16 02:58:24;;;;;;;21.90;5.95;;;;;;;;;;4992517;28;20034;-81
2021/12/16 03:00:56;;;;;;;21.10;4.38;;;;;;;;;;4993631;28;20022;-80
2021/12/16 03:03:22;;;;;;;18.83;4.20;;;;;;;;;;5007945;28;20057;-80
2021/12/16 03:05:49;;;;;;;20.92;5.55;;;;;;;;;;4996219;28;20018;-82
2021/12/16 03:08:15;;;;;;;22.95;5.35;;;6.90;99.90;;;;;;4995831;28;20046;-81
2021/12/16 03:11:04;;;;;;;16.83;4.38;;;;;;;;;;4991164;28;20037;-80
2021/12/16 03:13:37;;;;;;;32.28;6.95;;;;;;;;;;4993859;28;20102;-81
2021/12/16 03:21:25;;;;;;;25.05;6.75;;;;;;;;;;4988466;28;20030;-81
2021/12/16 03:32:02;;;;;;;25.98;8.88;;;;;;;;;;4988838;28;20026;-81
2021/12/16 03:39:39;;;;;;;;;;;;;;;;;;5010109;28;20034;-81
2021/12/16 03:42:05;;;;;;;27.38;8.15;;;6.50;99.90;;;;;;4995100;28;19926;-81
2021/12/16 03:44:49;;;;;;;30.05;8.88;;;;;;;;;;4998188;28;21303;-81
2021/12/16 03:47:16;;;;;;;820.72;124.03;;;;;;;;;;4982260;28;20047;-80
2021/12/16 03:49:43;;;;;;;34.05;10.30;;;;;;;;;;4978029;28;20035;-80
2021/12/16 03:52:09;;;;;;;23.45;8.57;;;;;;;;;;4993737;28;20043;-80
2021/12/16 03:54:40;;;;;;;35.97;10.63;;;;;;;;;;4980514;28;20044;-81
2021/12/16 03:57:08;;;;;;;28.35;9.05;;;;;;;;;;4998389;28;20050;-80
2021/12/16 03:59:35;;;;;;;25.38;6.80;;;;;;;;;;4994701;28;20074;-81
2021/12/16 04:02:05;;;;;;;29.90;7.13;;;;;;;;;;4985585;28;20042;-81
2021/12/16 04:04:31;;;;;;;18.42;6.38;;;;;;;;;;4997173;28;20047;-81
2021/12/16 04:06:57;;;;;;;26.30;6.50;;;;;;;;;;4978603;28;20050;-80
2021/12/16 04:09:24;;;;;;;23.38;7.50;;;;;;;;;;4994977;28;20037;-80
2021/12/16 04:11:57;;;;;;;22.38;5.43;;;;;;;;;;4992868;28;20224;-81
2021/12/16 04:14:23;;;;;;;22.92;6.25;;;6.80;99.90;;;;;;4994571;28;20036;-80
2021/12/16 04:16:51;;;;;;;25.67;7.18;;;;;;;;;;4991138;28;20038;-81
2021/12/16 04:19:19;;;;;;;26.83;7.45;;;;;;;;;;4992035;28;20050;-81
2021/12/16 04:21:55;;;;;;;30.00;7.18;;;7.00;99.90;;;;;;4992707;28;20030;-80
2021/12/16 04:24:22;;;;;;;25.75;7.20;;;;;;;;;;4994803;28;20050;-80
2021/12/16 04:26:49;;;;;;;26.92;7.63;;;;;;;;;;4987772;28;20038;-80
2021/12/16 04:29:17;;;;;;;34.72;8.50;;;;;;;;;;4995041;28;20035;-80
2021/12/16 04:31:44;;;;;;;34.38;7.82;;;;;;;;;;4992174;28;20062;-81
2021/12/16 04:34:11;;;;;;;27.77;8.52;;;;;;;;;;4995181;28;20030;-81
2021/12/16 04:36:37;;;;;;;35.58;9.07;;;;;;;;;;4995948;28;20026;-81
2021/12/16 04:39:07;;;;;;;30.80;8.00;;;;;;;;;;4996301;28;20049;-81
2021/12/16 04:41:34;;;;;;;26.88;8.35;;;;;;;;;;4993578;28;20053;-81
2021/12/16 04:44:02;;;;;;;32.17;8.85;;;;;;;;;;4992956;28;20127;-81
2021/12/16 04:46:30;;;;;;;32.42;8.80;;;;;;;;;;4991594;28;20043;-81
2021/12/16 04:48:58;;;;;;;32.13;7.50;;;;;;;;;;4991770;28;20267;-81
2021/12/16 04:51:26;;;;;;;28.83;8.50;;;;;;;;;;4999660;28;20108;-80
2021/12/16 04:53:52;;;;;;;27.40;9.63;;;;;;;;;;4997549;28;20307;-81
2021/12/16 04:56:19;;;;;;;31.75;10.93;;;;;;;;;;5010156;28;20026;-80
2021/12/16 04:58:47;;;;;;;30.60;8.40;;;;;;;;;;4999378;28;20453;-81
2021/12/16 05:01:13;;;;;;;34.67;8.70;;;;;;;;;;4998355;28;20780;-81
2021/12/16 05:03:39;;;;;;;26.13;9.02;;;;;;;;;;4983287;28;20039;-81
2021/12/16 05:06:06;;;;;;;33.45;11.55;;;;;;;;;;4990095;28;20072;-80
2021/12/16 05:08:32;;;;;;;37.50;10.90;;;6.10;99.90;;;;;;4999577;28;20057;-81
2021/12/16 05:11:02;;;;;;;36.33;10.48;;;;;;;;;;4999049;28;20041;-81
2021/12/16 05:13:28;;;;;;;38.90;10.15;;;;;;;;;;4998067;28;20057;-80
2021/12/16 05:15:56;;;;;;;43.47;11.07;;;;;;;;;;4998022;28;20243;-80
2021/12/16 05:18:31;;;;;;;162.90;18.15;;;6.10;99.90;;;;;;4999807;28;20050;-80
2021/12/16 05:20:59;;;;;;;30.83;10.25;;;6.10;99.90;;;;;;5005977;28;20049;-80
2021/12/16 05:28:36;;;;;;;24.02;11.25;;;;;;;;;;4996107;28;20078;-83
2021/12/16 05:31:03;;;;;;;37.45;11.30;;;;;;;;;;4998605;28;20092;-84
2021/12/16 05:33:29;;;;;;;46.72;12.20;;;;;;;;;;4989173;28;20342;-83
2021/12/16 05:35:57;;;;;;;38.75;11.27;;;;;;;;;;4998134;28;20023;-82
2021/12/16 05:38:23;;;;;;;42.92;12.32;;;;;;;;;;4995841;28;20050;-83
2021/12/16 05:40:50;;;;;;;44.78;12.52;;;;;;;;;;4996756;28;20129;-82
2021/12/16 05:43:18;;;;;;;43.97;12.32;;;;;;;;;;5004406;28;20042;-83
2021/12/16 05:45:45;;;;;;;48.17;12.48;;;;;;;;;;4999022;28;20160;-83
2021/12/16 05:48:13;;;;;;;47.72;12.50;;;;;;;;;;4998538;28;20254;-82
2021/12/16 05:50:41;;;;;;;40.53;12.43;;;;;;;;;;4998853;28;20121;-80
2021/12/16 05:53:07;;;;;;;54.55;14.43;;;;;;;;;;5000989;28;20053;-83
2021/12/16 05:55:34;;;;;;;47.15;12.50;;;;;;;;;;4985508;28;20039;-83
2021/12/16 05:58:02;;;;;;;46.05;12.70;;;;;;;;;;4992646;28;20299;-83
2021/12/16 06:00:31;;;;;;;55.92;15.00;;;;;;;;;;4997971;28;20034;-83
2021/12/16 06:02:58;;;;;;;58.10;16.73;;;;;;;;;;4996277;28;20034;-83
2021/12/16 06:05:24;;;;;;;62.67;16.83;;;;;;;;;;4998456;28;20330;-83
2021/12/16 06:07:51;;;;;;;61.42;15.32;;;6.10;99.90;;;;;;4997998;28;20034;-84
2021/12/16 06:11:03;;;;;;;362.90;25.40;;;;;;;;;;4998082;28;20050;-81
2021/12/16 06:13:12;;;;;;;326.35;30.00;;;;;;;;;;4995952;28;20039;-81
2021/12/16 06:16:00;;;;;;;98.75;18.38;;;;;;;;;;4998600;28;20033;-81
2021/12/16 06:27:09;;;;;;;103.85;20.70;;;;;;;;;;4993182;28;20062;-81
2021/12/16 06:29:31;;;;;;;113.85;21.42;;;;;;;;;;4990653;28;20053;-81
2021/12/16 06:31:57;;;;;;;88.07;19.17;;;;;;;;;;4997213;28;20298;-81
2021/12/16 06:34:24;;;;;;;163.63;24.45;;;;;;;;;;4979875;28;20034;-81
2021/12/16 06:36:50;;;;;;;252.30;23.50;;;;;;;;;;4991768;28;20061;-81
2021/12/16 06:39:17;;;;;;;536.25;38.03;;;;;;;;;;4995856;28;20050;-81
2021/12/16 06:41:43;;;;;;;528.10;40.45;;;;;;;;;;4979311;28;20148;-82
2021/12/16 06:44:20;;;;;;;546.55;39.50;;;5.00;99.90;;;;;;4997407;28;20034;-81
2021/12/16 06:46:48;;;;;;;676.65;51.97;;;;;;;;;;5005455;28;20041;-81
2021/12/16 06:49:16;;;;;;;567.92;58.55;;;;;;;;;;4994751;28;20088;-82
2021/12/16 06:51:52;;;;;;;525.92;49.00;;;;;;;;;;4996088;28;20034;-80
2021/12/16 06:54:27;;;;;;;367.17;42.72;;;;;;;;;;4984473;28;20038;-81
2021/12/16 06:59:31;;;;;;;746.90;66.72;;;;;;;;;;4996905;28;20042;-81
2021/12/16 07:02:07;;;;;;;395.10;48.80;;;;;;;;;;4997119;28;20034;-80
2021/12/16 07:04:34;;;;;;;1999.90;933.63;;;;;;;;;;4996114;28;20085;-80
2021/12/16 07:07:00;;;;;;;1999.90;164.48;;;;;;;;;;4980989;28;20100;-81
2021/12/16 07:09:26;;;;;;;527.53;45.03;;;;;;;;;;4995902;28;20148;-81
2021/12/16 07:11:57;;;;;;;472.45;53.72;;;4.80;99.90;;;;;;4991159;28;20090;-81
2021/12/16 07:14:34;;;;;;;364.40;39.88;;;4.70;99.90;;;;;;4990833;28;20065;-81
2021/12/16 07:17:02;;;;;;;1644.82;173.88;;;;;;;;;;4996621;28;20196;-81
2021/12/16 07:19:28;;;;;;;518.25;49.17;;;;;;;;;;4997193;28;20050;-81
2021/12/16 07:21:54;;;;;;;443.88;44.25;;;;;;;;;;4977950;28;20054;-78
2021/12/16 07:24:21;;;;;;;431.63;42.80;;;;;;;;;;4993043;28;20041;-82
2021/12/16 07:26:48;;;;;;;1365.65;129.35;;;;;;;;;;4996667;28;20022;-82
2021/12/16 07:29:14;;;;;;;445.30;46.85;;;;;;;;;;4982836;28;20032;-81
2021/12/16 07:31:40;;;;;;;237.85;36.70;;;;;;;;;;4993752;28;20043;-81
2021/12/16 07:34:08;;;;;;;341.70;47.55;;;;;;;;;;4979586;28;20030;-82
2021/12/16 07:36:35;;;;;;;313.25;42.58;;;;;;;;;;4996647;28;20096;-82
2021/12/16 07:39:03;;;;;;;355.42;48.38;;;;;;;;;;4996916;28;20070;-83
2021/12/16 07:41:32;;;;;;;751.63;72.00;;;;;;;;;;4996541;28;20046;-82
2021/12/16 07:44:12;;;;;;;692.75;64.90;;;;;;;;;;4993156;28;20042;-81
2021/12/16 07:46:49;;;;;;;598.78;56.38;;;;;;;;;;4986407;28;20114;-81
2021/12/16 07:49:17;;;;;;;421.92;43.50;;;;;;;;;;4991865;28;20268;-82
2021/12/16 07:51:43;;;;;;;609.00;51.97;;;;;;;;;;4996769;28;20037;-82
2021/12/16 07:54:11;;;;;;;499.65;54.33;;;5.60;99.90;;;;;;4986015;28;20034;-82
2021/12/16 07:56:37;;;;;;;1659.93;140.65;;;;;;;;;;4996089;28;20037;-82
2021/12/16 07:59:04;;;;;;;644.03;62.30;;;;;;;;;;4973910;28;20053;-81
2021/12/16 08:01:30;;;;;;;445.90;46.00;;;;;;;;;;4996733;28;20037;-82
2021/12/16 08:03:57;;;;;;;451.15;41.88;;;;;;;;;;4982435;28;20202;-81
2021/12/16 08:06:25;;;;;;;428.10;38.50;;;;;;;;;;4996941;28;20030;-81
2021/12/16 08:08:56;;;;;;;336.58;35.63;;;;;;;;;;4993958;28;20038;-81
2021/12/16 08:11:24;;;;;;;529.38;43.17;;;;;;;;;;4996753;28;20058;-82
2021/12/16 08:13:50;;;;;;;462.92;41.03;;;;;;;;;;4992924;28;20098;-82
2021/12/16 08:16:17;;;;;;;418.33;36.42;;;;;;;;;;4996473;28;20527;-82
2021/12/16 08:18:44;;;;;;;381.75;36.72;;;;;;;;;;4995993;28;20205;-82
2021/12/16 08:21:10;;;;;;;306.40;31.27;;;;;;;;;;4993828;28;20026;-81
2021/12/16 08:23:36;;;;;;;435.75;38.38;;;;;;;;;;4996004;28;20049;-81
2021/12/16 08:26:03;;;;;;;511.55;40.40;;;;;;;;;;5004291;28;20176;-81
2021/12/16 08:28:29;;;;;;;485.80;40.60;;;;;;;;;;5001803;28;20152;-82
2021/12/16 08:30:56;;;;;;;421.25;39.88;;;;;;;;;;4995440;28;20023;-81
2021/12/16 08:33:22;;;;;;;410.20;39.15;;;;;;;;;;4998694;28;20042;-83
2021/12/16 08:35:50;;;;;;;402.95;40.78;;;;;;;;;;4998665;28;20030;-83
2021/12/16 08:38:18;;;;;;;467.65;41.55;;;;;;;;;;4986314;28;20097;-83
2021/12/16 08:40:46;;;;;;;280.27;25.15;;;;;;;;;;4977885;28;20035;-83
2021/12/16 08:43:12;;;;;;;372.83;31.20;;;;;;;;;;4993955;28;20180;-82
2021/12/16 08:45:40;;;;;;;479.60;41.35;;;;;;;;;;4999824;28;20065;-83
2021/12/16 08:48:07;;;;;;;469.83;40.35;;;;;;;;;;4996519;28;20252;-83
2021/12/16 08:50:35;;;;;;;525.97;42.40;;;;;;;;;;4997609;28;20057;-82
2021/12/16 08:53:02;;;;;;;293.58;26.23;;;;;;;;;;4998952;28;20050;-81
2021/12/16 08:55:30;;;;;;;274.05;24.85;;;;;;;;;;4998563;28;21102;-81
2021/12/16 08:57:56;;;;;;;326.42;29.50;;;;;;;;;;4998299;28;20224;-81
2021/12/16 09:00:25;;;;;;;254.75;22.95;;;;;;;;;;4979967;28;20034;-84
2021/12/16 09:02:51;;;;;;;281.60;25.67;;;;;;;;;;4999182;28;20037;-82
2021/12/16 09:05:17;;;;;;;480.50;42.70;;;;;;;;;;4999820;28;20022;-82
2021/12/16 09:07:46;;;;;;;510.92;45.97;;;;;;;;;;4997413;28;20418;-82
2021/12/16 09:10:14;;;;;;;1767.20;104.55;;;;;;;;;;4999509;28;20037;-83
2021/12/16 09:13:02;;;;;;;396.63;35.80;;;;;;;;;;4997485;28;20045;-85
2021/12/16 09:15:29;;;;;;;316.00;29.30;;;;;;;;;;4993688;28;20058;-86
2021/12/16 09:17:55;;;;;;;164.77;18.48;;;;;;;;;;4993482;28;20022;-85
2021/12/16 09:20:22;;;;;;;61.92;8.20;;;;;;;;;;4981904;28;20089;-87
2021/12/16 09:22:48;;;;;;;97.32;14.65;;;;;;;;;;5006808;28;20043;-87
2021/12/16 09:25:15;;;;;;;99.22;16.42;;;;;;;;;;4983761;28;20042;-83
2021/12/16 09:27:42;;;;;;;305.50;33.17;;;;;;;;;;4987424;28;20082;-83
2021/12/16 09:30:11;;;;;;;209.63;24.20;;;;;;;;;;4981807;28;20038;-85
2021/12/16 09:32:37;;;;;;;8.45;1.95;;;;;;;;;;4997026;28;20104;-83
2021/12/16 09:35:04;;;;;;;58.17;7.63;;;;;;;;;;4999627;28;20050;-84
2021/12/16 09:37:31;;;;;;;15.30;3.08;;;;;;;;;;4998243;28;20046;-84
2021/12/16 09:39:57;;;;;;;13.00;2.05;;;;;;;;;;4997901;28;20084;-83
2021/12/16 09:42:26;;;;;;;112.57;15.43;;;;;;;;;;4986823;28;20176;-84
2021/12/16 09:44:53;;;;;;;130.65;24.25;;;;;;;;;;4997549;28;20113;-84
2021/12/16 09:47:21;;;;;;;143.98;20.65;;;;;;;;;;4996944;28;20069;-82
2021/12/16 09:49:47;;;;;;;273.30;35.15;;;;;;;;;;4997930;28;20054;-82
2021/12/16 09:52:14;;;;;;;200.45;28.58;;;;;;;;;;4999528;28;20038;-83
2021/12/16 09:54:41;;;;;;;242.57;31.83;;;;;;;;;;4997223;28;20038;-84
2021/12/16 09:57:07;;;;;;;219.35;31.58;;;;;;;;;;4978355;28;20042;-84
2021/12/16 09:59:34;;;;;;;96.13;16.35;;;;;;;;;;4996616;28;20212;-82
2021/12/16 10:02:01;;;;;;;166.70;25.60;;;;;;;;;;4983587;28;20113;-84
2021/12/16 10:04:31;;;;;;;214.73;27.80;;;;;;;;;;4993170;28;20040;-83
2021/12/16 10:06:59;;;;;;;187.82;24.67;;;;;;;;;;4999053;28;20034;-83
2021/12/16 10:09:26;;;;;;;210.38;28.52;;;;;;;;;;4998890;28;20106;-83
2021/12/16 10:11:54;;;;;;;240.73;28.58;;;;;;;;;;4997965;28;20063;-83
2021/12/16 10:19:43;;;;;;;501.27;45.80;;;;;;;;;;4998711;28;20122;-84
2021/12/16 10:22:29;;;;;;;236.27;34.13;;;;;;;;;;4989178;28;20041;-84
2021/12/16 10:24:56;;;;;;;342.30;33.78;;;;;;;;;;4998084;28;20325;-84
2021/12/16 10:27:27;;;;;;;493.80;45.85;;;8.30;99.90;;;;;;5001986;28;20160;-84
2021/12/16 10:29:55;;;;;;;1502.95;114.72;;;;;;;;;;4995473;28;20263;-84
2021/12/16 10:32:54;;;;;;;238.52;33.25;;;8.50;99.90;;;;;;4984367;28;20031;-84
2021/12/16 10:35:31;;;;;;;322.88;35.30;;;;;;;;;;4950906;28;20118;-84
2021/12/16 10:37:59;;;;;;;300.02;35.72;;;;;;;;;;4995167;28;20053;-84
2021/12/16 10:40:32;;;;;;;413.80;40.55;;;;;;;;;;4990511;28;20480;-83
2021/12/16 10:42:59;;;;;;;418.73;41.33;;;;;;;;;;4992226;28;20085;-84
2021/12/16 10:45:25;;;;;;;247.68;29.48;;;;;;;;;;4996636;28;20363;-84
2021/12/16 10:48:11;;;;;;;331.70;34.40;;;;;;;;;;4978781;28;20061;-84
2021/12/16 10:51:09;;;;;;;278.75;31.08;;;8.90;99.90;;;;;;4984203;28;20116;-84
2021/12/16 10:53:47;;;;;;;262.25;30.77;;;;;;;;;;4996130;28;20033;-84
2021/12/16 10:56:14;;;;;;;415.08;38.17;;;;;;;;;;5002711;28;20034;-84
2021/12/16 10:58:52;;;;;;;300.23;31.45;;;;;;;;;;4998884;28;20192;-83
2021/12/16 11:01:36;;;;;;;412.40;38.47;;;;;;;;;;5000279;28;20038;-83
2021/12/16 11:04:04;;;;;;;391.33;37.33;;;;;;;;;;4994156;28;20059;-84
2021/12/16 11:06:33;;;;;;;262.35;31.48;;;;;;;;;;4985145;28;20042;-85
2021/12/16 11:09:31;;;;;;;431.73;41.70;;;;;;;;;;4996894;28;20086;-84
2021/12/16 11:12:16;;;;;;;224.98;30.92;;;;;;;;;;4975473;28;20038;-84
2021/12/16 11:14:48;;;;;;;100.57;19.60;;;;;;;;;;4994907;28;20350;-84
2021/12/16 11:17:16;;;;;;;159.90;26.15;;;;;;;;;;4995494;28;20018;-84
2021/12/16 11:19:42;;;;;;;105.00;23.13;;;;;;;;;;5004086;28;20096;-84
2021/12/16 11:22:09;;;;;;;76.90;14.20;;;;;;;;;;5006103;28;20069;-84
2021/12/16 11:24:35;;;;;;;57.17;13.35;;;;;;;;;;4981307;28;20037;-85
2021/12/16 11:27:19;;;;;;;89.00;20.23;;;;;;;;;;4969191;28;20505;-83
2021/12/16 11:29:45;;;;;;;79.53;18.77;;;;;;;;;;4996943;28;20038;-83
2021/12/16 11:32:31;;;;;;;72.22;21.20;;;;;;;;;;4996739;28;20156;-84
2021/12/16 11:34:57;;;;;;;53.15;15.80;;;;;;;;;;4994756;28;20022;-84
2021/12/16 11:37:24;;;;;;;57.25;14.95;;;;;;;;;;5006126;28;20214;-84
2021/12/16 11:39:50;;;;;;;45.53;14.35;;;;;;;;;;5000065;28;20093;-82
2021/12/16 11:42:27;;;;;;;80.57;21.33;;;9.50;99.90;;;;;;4993843;28;20035;-84
2021/12/16 11:44:53;;;;;;;84.32;21.85;;;;;;;;;;4994526;28;20026;-84
2021/12/16 11:47:23;;;;;;;75.80;21.15;;;;;;;;;;4986892;28;20101;-84
2021/12/16 11:50:01;;;;;;;42.75;12.75;;;9.60;99.90;;;;;;4994125;28;20248;-84
2021/12/16 11:52:29;;;;;;;57.28;15.38;;;;;;;;;;5004960;28;20025;-84
2021/12/16 11:54:57;;;;;;;52.65;16.25;;;;;;;;;;4997792;28;20225;-84
2021/12/16 11:57:26;;;;;;;39.58;12.27;;;;;;;;;;4982497;28;20022;-85
2021/12/16 11:59:55;;;;;;;76.68;20.50;;;;;;;;;;4981104;28;20041;-81
2021/12/16 12:02:26;;;;;;;65.63;22.25;;;;;;;;;;4998398;28;20042;-80
2021/12/16 12:04:54;;;;;;;64.32;20.52;;;;;;;;;;4986866;28;20055;-81
2021/12/16 12:07:20;;;;;;;62.97;18.40;;;;;;;;;;4999312;28;20096;-80
2021/12/16 12:09:52;;;;;;;84.85;21.55;;;;;;;;;;4996917;28;20097;-81
2021/12/16 12:12:38;;;;;;;95.65;22.60;;;;;;;;;;4996879;28;20038;-81
2021/12/16 12:15:06;;;;;;;126.38;26.00;;;10.00;99.90;;;;;;4994204;28;20026;-81
2021/12/16 12:17:42;;;;;;;113.88;21.15;;;;;;;;;;4980846;28;20054;-81
2021/12/16 12:20:09;;;;;;;97.07;21.33;;;;;;;;;;4974178;28;20129;-81
2021/12/16 12:22:35;;;;;;;91.50;22.67;;;;;;;;;;4991936;28;20045;-79
2021/12/16 12:25:02;;;;;;;67.32;17.48;;;;;;;;;;4986114;28;20064;-82
2021/12/16 12:27:28;;;;;;;60.15;16.05;;;;;;;;;;4996478;28;20039;-82
2021/12/16 12:29:56;;;;;;;51.28;15.63;;;;;;;;;;4997237;28;20027;-82
2021/12/16 12:32:36;;;;;;;43.15;13.77;;;;;;;;;;4995522;28;20811;-82
2021/12/16 12:35:08;;;;;;;54.53;15.90;;;10.00;99.90;;;;;;4998109;28;20038;-81
2021/12/16 12:37:36;;;;;;;62.88;15.20;;;;;;;;;;5001717;28;20171;-81
2021/12/16 12:40:36;;;;;;;70.40;16.63;;;10.00;99.90;;;;;;4995429;28;20045;-81
2021/12/16 12:43:04;;;;;;;65.40;17.17;;;10.00;99.90;;;;;;4991747;28;20333;-82
2021/12/16 12:45:34;;;;;;;77.50;15.05;;;;;;;;;;4990639;28;20030;-81
2021/12/16 12:48:01;;;;;;;70.82;16.65;;;;;;;;;;5002181;28;20163;-81
2021/12/16 12:50:29;;;;;;;72.63;15.35;;;;;;;;;;4988193;28;20030;-78
2021/12/16 12:53:00;;;;;;;63.47;18.55;;;10.00;99.90;;;;;;4996437;28;20429;-81
2021/12/16 12:55:29;;;;;;;42.45;13.32;;;;;;;;;;4995527;28;20038;-83
2021/12/16 12:58:01;;;;;;;51.55;13.65;;;;;;;;;;4994514;28;20109;-83
2021/12/16 13:00:50;;;;;;;30.73;9.10;;;10.00;99.90;;;;;;4995756;28;20026;-82
2021/12/16 13:03:18;;;;;;;46.25;14.02;;;;;;;;;;4987387;28;20097;-81
2021/12/16 13:05:57;;;;;;;46.88;15.05;;;;;;;;;;4991652;28;20049;-82
2021/12/16 13:08:29;;;;;;;29.55;11.00;;;;;;;;;;4992502;28;20066;-82
2021/12/16 13:10:59;;;;;;;34.20;13.10;;;;;;;;;;4992896;28;20031;-84
2021/12/16 13:16:18;;;;;;;49.13;14.93;;;;;;;;;;5000394;28;20047;-84
2021/12/16 13:27:26;;;;;;;78.18;20.60;;;;;;;;;;4992046;28;20054;-84
2021/12/16 13:32:41;;;;;;;65.40;19.92;;;;;;;;;;5000618;28;20050;-84
2021/12/16 13:35:23;;;;;;;62.63;20.60;;;;;;;;;;4996053;28;20073;-83
2021/12/16 13:37:55;;;;;;;53.28;19.02;;;9.90;99.90;;;;;;5001947;28;20142;-83
2021/12/16 13:40:23;;;;;;;45.33;14.00;;;;;;;;;;4996471;28;20037;-84
2021/12/16 13:42:59;;;;;;;68.35;19.02;;;;;;;;;;4994927;28;20248;-83
2021/12/16 13:45:33;;;;;;;62.67;18.58;;;;;;;;;;5003472;28;20026;-83
2021/12/16 14:14:10;;;;;;;75.65;23.90;;;;;;;;;;4984914;28;20528;-83
2021/12/16 14:16:14;;;;;;;128.35;22.55;;;;;;;;;;5002660;28;20038;-84
2021/12/16 14:25:12;;;;;;;158.90;21.33;;;;;;;;;;4936987;28;20044;-84
2021/12/16 14:43:39;;;;;;;352.98;26.48;;;;;;;;;;4986461;28;20069;-83
2021/12/16 14:46:08;;;;;;;368.40;27.08;;;;;;;;;;4989791;28;20033;-80
2021/12/16 14:48:38;;;;;;;371.42;30.05;;;;;;;;;;4987896;28;20117;-81
2021/12/16 14:51:12;;;;;;;329.70;24.65;;;;;;;;;;4998376;28;20030;-83
2021/12/16 14:53:40;;;;;;;377.55;27.70;;;;;;;;;;4995093;28;20044;-82
2021/12/16 14:56:06;;;;;;;382.55;28.30;;;;;;;;;;4994218;28;20081;-82
2021/12/16 14:58:33;;;;;;;387.00;27.30;;;;;;;;;;4996499;28;20161;-82
2021/12/16 15:01:03;;;;;;;408.05;29.20;;;;;;;;;;4995916;28;20042;-82
2021/12/16 15:03:35;;;;;;;401.60;30.38;;;;;;;;;;5013053;28;20260;-81
2021/12/16 15:06:05;;;;;;;373.27;30.55;;;;;;;;;;4996095;28;20061;-80
2021/12/16 15:08:42;;;;;;;513.78;36.97;;;;;;;;;;4976757;28;20031;-82
2021/12/16 15:11:11;;;;;;;381.27;31.50;;;8.90;99.90;;;;;;4995289;28;20113;-82
2021/12/16 15:13:41;;;;;;;511.17;38.45;;;;;;;;;;4999388;28;20026;-82
2021/12/16 15:16:41;;;;;;;521.38;36.35;;;;;;;;;;4996360;28;20042;-81
2021/12/16 15:40:53;;;;;;;295.58;28.95;;;;;;;;;;5000973;28;20137;-80
2021/12/16 15:43:20;;;;;;;210.95;19.98;;;;;;;;;;5001179;28;20307;-81
2021/12/16 15:45:48;;;;;;;293.67;25.08;;;;;;;;;;4999951;28;20205;-80
2021/12/16 15:48:22;;;;;;;168.73;16.95;;;8.40;99.90;;;;;;5005929;28;20054;-80
2021/12/16 15:50:48;;;;;;;171.43;19.92;;;;;;;;;;4994530;28;20023;-81
2021/12/16 15:53:20;;;;;;;263.48;22.67;;;;;;;;;;4980420;28;20034;-81
2021/12/16 15:55:48;;;;;;;184.13;18.30;;;;;;;;;;4990865;28;20069;-80
2021/12/16 15:58:14;;;;;;;292.70;22.52;;;;;;;;;;4995205;28;20033;-81
2021/12/16 16:00:42;;;;;;;180.77;16.65;;;;;;;;;;4991532;28;20095;-80
2021/12/16 16:03:09;;;;;;;259.67;24.27;;;;;;;;;;4980821;28;20271;-81
2021/12/16 16:05:38;;;;;;;254.43;18.92;;;;;;;;;;4994119;28;20058;-83
2021/12/16 16:08:06;;;;;;;251.75;19.23;;;;;;;;;;4994555;28;20038;-84
2021/12/16 16:10:32;;;;;;;232.00;17.48;;;8.10;99.90;;;;;;4996950;28;20045;-81
2021/12/16 16:13:19;;;;;;;135.68;12.68;;;;;;;;;;4991968;28;20137;-81
2021/12/16 16:15:48;;;;;;;178.95;16.52;;;;;;;;;;4980344;28;20060;-80
2021/12/16 16:18:33;;;;;;;204.75;16.58;;;;;;;;;;4984476;28;20276;-81
2021/12/16 16:21:03;;;;;;;239.50;19.30;;;;;;;;;;4994366;28;20049;-81
2021/12/16 16:23:30;;;;;;;171.20;16.13;;;;;;;;;;4997433;28;20106;-81
2021/12/16 16:26:01;;;;;;;218.93;16.65;;;8.40;99.90;;;;;;4991641;28;20022;-79
2021/12/16 16:28:28;;;;;;;180.32;16.15;;;;;;;;;;4996268;28;20038;-81
2021/12/16 16:30:54;;;;;;;166.40;13.50;;;;;;;;;;4996835;28;20033;-84
2021/12/16 16:33:22;;;;;;;138.30;14.68;;;;;;;;;;4994811;28;20037;-80
2021/12/16 16:35:50;;;;;;;182.95;17.98;;;;;;;;;;4995446;28;20022;-82
2021/12/16 16:38:25;;;;;;;291.80;20.50;;;;;;;;;;4978622;28;20294;-82
2021/12/16 16:40:54;;;;;;;217.43;17.88;;;8.20;99.90;;;;;;4979851;28;20027;-82
2021/12/16 16:43:20;;;;;;;213.73;17.60;;;;;;;;;;4991799;28;20305;-81
2021/12/16 16:45:48;;;;;;;230.35;17.60;;;;;;;;;;4981998;28;20104;-80
2021/12/16 16:48:31;;;;;;;266.75;19.30;;;;;;;;;;4999746;28;20038;-81
2021/12/16 16:51:09;;;;;;;268.48;20.90;;;;;;;;;;4983903;28;20022;-81
2021/12/16 16:53:44;;;;;;;237.07;20.45;;;;;;;;;;4999114;28;20053;-83
2021/12/16 16:56:10;;;;;;;222.60;19.60;;;;;;;;;;4991410;28;20242;-82
2021/12/16 16:58:36;;;;;;;212.35;23.48;;;;;;;;;;4999903;28;20266;-82
2021/12/16 17:01:03;;;;;;;288.40;23.10;;;;;;;;;;4993385;28;20113;-81
2021/12/16 17:03:30;;;;;;;284.08;21.92;;;;;;;;;;4999808;28;20307;-82
2021/12/16 17:06:03;;;;;;;299.25;24.60;;;;;;;;;;4998848;28;20070;-81
2021/12/16 17:08:41;;;;;;;312.70;32.65;;;;;;;;;;4997141;28;20101;-81
2021/12/16 17:11:16;;;;;;;218.48;20.27;;;8.40;99.90;;;;;;4997451;28;20098;-82
2021/12/16 17:18:52;;;;;;;265.17;25.67;;;;;;;;;;4999972;28;20101;-81
2021/12/16 17:21:33;;;;;;;278.17;23.60;;;;;;;;;;4981574;28;20050;-81
2021/12/16 17:24:06;;;;;;;315.77;25.27;;;8.40;99.90;;;;;;5010630;28;20084;-81
2021/12/16 17:26:34;;;;;;;278.90;22.67;;;;;;;;;;4994750;28;20034;-82
2021/12/16 17:29:05;;;;;;;308.92;25.20;;;;;;;;;;4976961;28;20094;-82
2021/12/16 17:32:01;;;;;;;355.13;26.80;;;;;;;;;;4993566;28;20034;-81
2021/12/16 17:34:36;;;;;;;401.27;28.00;;;;;;;;;;4987173;28;20042;-81
2021/12/16 17:37:05;;;;;;;318.58;26.25;;;8.20;99.90;;;;;;4987921;28;20030;-82
2021/12/16 17:39:33;;;;;;;293.48;23.85;;;;;;;;;;4996635;28;20059;-81
2021/12/16 17:42:02;;;;;;;341.60;27.50;;;;;;;;;;4990389;28;20078;-81
2021/12/16 17:44:29;;;;;;;309.77;23.73;;;;;;;;;;4998005;28;20222;-82
2021/12/16 17:46:58;;;;;;;244.60;21.05;;;;;;;;;;4996384;28;20041;-82
2021/12/16 17:49:24;;;;;;;258.55;23.48;;;;;;;;;;4995490;28;20156;-81
2021/12/16 17:51:51;;;;;;;258.45;22.67;;;;;;;;;;4976987;28;20265;-82
2021/12/16 17:54:17;;;;;;;308.27;28.67;;;;;;;;;;4991927;28;20027;-82
2021/12/16 17:56:51;;;;;;;235.50;23.75;;;;;;;;;;4994413;28;20028;-82
2021/12/16 17:59:17;;;;;;;202.20;23.15;;;;;;;;;;4995386;28;20066;-80
2021/12/16 18:01:46;;;;;;;238.77;26.67;;;8.30;99.90;;;;;;4993098;28;20074;-82
2021/12/16 18:04:19;;;;;;;212.25;29.33;;;;;;;;;;4995058;28;20050;-80
2021/12/16 18:06:51;;;;;;;259.85;28.60;;;;;;;;;;4991969;28;20248;-81
2021/12/16 18:09:19;;;;;;;331.77;33.47;;;;;;;;;;4991925;28;20109;-84
2021/12/16 18:11:51;;;;;;;402.42;37.70;;;;;;;;;;4994936;28;20046;-81
2021/12/16 18:14:20;;;;;;;271.65;31.92;;;;;;;;;;4989981;28;20211;-81